createdAt,value
2019-03-29T00:00:14.658Z,9.30
2019-03-29T00:02:45.631Z,9.30
2019-03-29T00:05:15.024Z,9.40
2019-03-29T00:07:44.370Z,9.40
2019-03-29T00:10:13.717Z,9.30
2019-03-29T00:12:43.043Z,9.30
2019-03-29T00:15:12.377Z,9.30
2019-03-29T00:17:41.699Z,9.30
2019-03-29T00:20:11.047Z,9.30
2019-03-29T00:22:40.375Z,9.30
2019-03-29T00:25:09.797Z,9.20
2019-03-29T00:27:39.132Z,9.30
2019-03-29T00:30:08.664Z,9.20
2019-03-29T00:32:38.004Z,9.20
2019-03-29T00:35:08.532Z,9.30
2019-03-29T00:37:37.860Z,9.30
2019-03-29T00:40:07.619Z,9.30
2019-03-29T00:42:37.043Z,9.30
2019-03-29T00:45:07.892Z,9.30
2019-03-29T00:47:37.227Z,9.40
2019-03-29T00:50:07.624Z,9.40
2019-03-29T00:52:37.009Z,9.30
2019-03-29T00:55:07.182Z,9.30
2019-03-29T00:57:37.484Z,9.40
2019-03-29T01:00:08.647Z,9.40
2019-03-29T01:02:37.984Z,9.40
2019-03-29T01:05:07.543Z,9.40
2019-03-29T01:07:36.964Z,9.40
2019-03-29T01:10:07.219Z,9.40
2019-03-29T01:12:36.559Z,9.40
2019-03-29T01:15:09.178Z,9.40
2019-03-29T01:17:38.844Z,9.40
2019-03-29T01:20:08.720Z,9.40
2019-03-29T01:22:38.048Z,9.30
2019-03-29T01:25:08.640Z,9.30
2019-03-29T01:27:38.063Z,9.30
2019-03-29T01:30:08.516Z,9.30
2019-03-29T01:32:37.853Z,9.30
2019-03-29T01:35:09.156Z,9.30
2019-03-29T01:37:38.638Z,9.30
2019-03-29T01:40:09.079Z,9.40
2019-03-29T01:42:38.739Z,9.40
2019-03-29T01:45:08.698Z,9.40
2019-03-29T01:47:38.054Z,9.40
2019-03-29T01:50:08.165Z,9.30
2019-03-29T01:52:38.788Z,9.30
2019-03-29T01:55:08.358Z,9.30
2019-03-29T01:57:37.687Z,9.30
2019-03-29T02:00:09.033Z,9.30
2019-03-29T02:02:38.655Z,9.40
2019-03-29T02:05:08.153Z,9.30
2019-03-29T02:07:38.221Z,9.20
2019-03-29T02:10:09.355Z,9.30
2019-03-29T02:12:38.705Z,9.30
2019-03-29T02:15:08.607Z,9.30
2019-03-29T02:17:38.130Z,9.30
2019-03-29T02:20:07.690Z,9.20
2019-03-29T02:22:37.116Z,9.20
2019-03-29T02:25:08.566Z,9.30
2019-03-29T02:27:38.048Z,9.30
2019-03-29T02:30:08.229Z,9.20
2019-03-29T02:32:37.622Z,9.20
2019-03-29T02:35:07.972Z,9.30
2019-03-29T02:37:37.309Z,9.20
2019-03-29T02:40:07.829Z,9.20
2019-03-29T02:42:37.182Z,9.20
2019-03-29T02:45:07.029Z,9.20
2019-03-29T02:47:36.419Z,9.20
2019-03-29T02:50:08.591Z,9.20
2019-03-29T02:52:37.762Z,9.20
2019-03-29T02:55:07.725Z,9.30
2019-03-29T02:57:37.045Z,9.20
2019-03-29T03:00:10.576Z,9.20
2019-03-29T03:02:39.980Z,9.20
2019-03-29T03:05:10.936Z,9.20
2019-03-29T03:07:40.254Z,9.20
2019-03-29T03:10:11.624Z,9.30
2019-03-29T03:12:40.944Z,9.30
2019-03-29T03:15:10.928Z,9.40
2019-03-29T03:17:40.517Z,9.40
2019-03-29T03:20:15.095Z,9.40
2019-03-29T03:22:43.204Z,9.40
2019-03-29T03:25:12.896Z,9.40
2019-03-29T03:27:42.285Z,9.30
2019-03-29T03:30:12.950Z,9.40
2019-03-29T03:32:42.389Z,9.30
2019-03-29T03:35:12.630Z,9.30
2019-03-29T03:37:43.010Z,9.40
2019-03-29T03:40:13.668Z,9.30
2019-03-29T03:42:44.943Z,9.30
2019-03-29T03:45:14.319Z,9.40
2019-03-29T03:47:43.671Z,9.40
2019-03-29T03:50:16.148Z,9.40
2019-03-29T03:52:45.549Z,9.40
2019-03-29T03:55:14.879Z,9.30
2019-03-29T03:57:44.409Z,9.30
2019-03-29T04:00:14.005Z,9.30
2019-03-29T04:02:43.397Z,9.30
2019-03-29T04:05:13.827Z,9.20
2019-03-29T04:07:43.249Z,9.30
2019-03-29T04:10:12.578Z,9.30
2019-03-29T04:12:41.987Z,9.20
2019-03-29T04:15:23.765Z,9.20
2019-03-29T04:17:53.117Z,9.20
2019-03-29T04:20:22.537Z,9.20
2019-03-29T04:22:51.856Z,9.20
2019-03-29T04:25:21.212Z,9.20
2019-03-29T04:27:50.576Z,9.10
2019-03-29T04:30:19.921Z,9.10
2019-03-29T04:32:49.299Z,9.20
2019-03-29T04:35:18.652Z,9.20
2019-03-29T04:37:47.977Z,9.30
2019-03-29T04:40:17.298Z,9.30
2019-03-29T04:42:46.660Z,9.30
2019-03-29T04:45:15.981Z,9.30
2019-03-29T04:47:45.320Z,9.30
2019-03-29T04:50:14.631Z,9.30
2019-03-29T04:52:43.976Z,9.30
2019-03-29T04:55:13.373Z,9.40
2019-03-29T04:57:42.798Z,9.30
2019-03-29T05:00:12.306Z,9.30
2019-03-29T05:02:41.651Z,9.30
2019-03-29T05:05:10.980Z,9.30
2019-03-29T05:07:40.327Z,9.30
2019-03-29T05:10:20.547Z,9.30
2019-03-29T05:12:42.102Z,9.30
2019-03-29T05:15:11.563Z,9.30
2019-03-29T05:17:40.891Z,9.30
2019-03-29T05:20:10.375Z,9.30
2019-03-29T05:22:39.703Z,9.30
2019-03-29T05:25:09.032Z,9.30
2019-03-29T05:27:38.392Z,9.30
2019-03-29T05:30:08.123Z,9.20
2019-03-29T05:32:37.455Z,9.20
2019-03-29T05:35:07.368Z,9.20
2019-03-29T05:37:36.790Z,9.20
2019-03-29T05:40:06.739Z,9.10
2019-03-29T05:42:36.135Z,8.90
2019-03-29T05:45:08.695Z,8.80
2019-03-29T05:47:38.023Z,8.70
2019-03-29T05:50:08.113Z,8.70
2019-03-29T05:52:37.508Z,8.60
2019-03-29T05:55:07.097Z,8.70
2019-03-29T05:57:36.433Z,8.80
2019-03-29T06:00:07.451Z,9.10
2019-03-29T06:02:37.776Z,9.40
2019-03-29T06:05:07.160Z,9.70
2019-03-29T06:07:36.535Z,10.10
2019-03-29T06:10:08.412Z,10.50
2019-03-29T06:12:37.771Z,11.10
2019-03-29T06:15:08.512Z,11.70
2019-03-29T06:17:47.901Z,12.40
2019-03-29T06:20:10.243Z,13.20
2019-03-29T06:22:39.572Z,14.10
2019-03-29T06:25:10.934Z,14.90
2019-03-29T06:27:40.496Z,16.00
2019-03-29T06:30:11.052Z,16.90
2019-03-29T06:32:40.375Z,17.90
2019-03-29T06:35:09.716Z,18.50
2019-03-29T06:37:41.488Z,19.10
2019-03-29T06:40:19.561Z,19.80
2019-03-29T06:42:48.884Z,20.10
2019-03-29T06:45:18.219Z,20.40
2019-03-29T06:47:47.577Z,21.10
2019-03-29T06:50:16.992Z,20.40
2019-03-29T06:52:46.415Z,20.40
2019-03-29T06:55:16.743Z,21.00
2019-03-29T06:57:46.101Z,21.30
2019-03-29T07:00:15.680Z,21.60
2019-03-29T07:02:45.022Z,22.00
2019-03-29T07:05:14.355Z,22.40
2019-03-29T07:07:44.627Z,22.50
2019-03-29T07:10:14.105Z,22.20
2019-03-29T07:12:43.467Z,22.30
2019-03-29T07:15:12.799Z,22.20
2019-03-29T07:17:42.127Z,22.50
2019-03-29T07:20:11.699Z,24.20
2019-03-29T07:22:41.029Z,24.80
2019-03-29T07:25:10.916Z,24.70
2019-03-29T07:27:45.861Z,24.90
2019-03-29T07:30:12.037Z,25.40
2019-03-29T07:32:41.363Z,25.90
2019-03-29T07:35:10.863Z,25.70
2019-03-29T07:37:40.202Z,25.00
2019-03-29T07:40:09.674Z,26.10
2019-03-29T07:42:39.079Z,25.90
2019-03-29T07:45:10.388Z,26.20
2019-03-29T07:47:39.867Z,25.80
2019-03-29T07:50:09.375Z,26.30
2019-03-29T07:52:39.284Z,26.30
2019-03-29T07:55:08.759Z,26.80
2019-03-29T07:57:39.155Z,26.70
2019-03-29T08:00:08.959Z,26.60
2019-03-29T08:02:38.298Z,25.20
2019-03-29T08:05:08.195Z,25.80
2019-03-29T08:07:37.818Z,26.60
2019-03-29T08:10:07.485Z,26.40
2019-03-29T08:12:40.378Z,26.20
2019-03-29T08:15:09.822Z,27.10
2019-03-29T08:17:39.578Z,26.90
2019-03-29T08:20:37.402Z,27.60
2019-03-29T08:22:39.974Z,27.50
2019-03-29T08:25:09.480Z,27.80
2019-03-29T08:27:38.848Z,28.10
2019-03-29T08:30:08.528Z,28.00
2019-03-29T08:32:37.972Z,27.40
2019-03-29T08:35:07.476Z,26.80
2019-03-29T08:37:37.776Z,27.20
2019-03-29T08:40:07.276Z,27.00
2019-03-29T08:42:36.615Z,27.20
2019-03-29T08:45:07.281Z,27.60
2019-03-29T08:47:36.633Z,27.90
2019-03-29T08:50:07.681Z,27.90
2019-03-29T08:52:38.084Z,27.20
2019-03-29T08:55:07.749Z,27.60
2019-03-29T08:57:37.091Z,27.70
2019-03-29T09:00:08.235Z,26.60
2019-03-29T09:02:38.061Z,26.10
2019-03-29T09:05:07.571Z,24.50
2019-03-29T09:07:44.479Z,24.00
2019-03-29T09:10:13.776Z,22.50
2019-03-29T09:12:43.416Z,21.30
2019-03-29T09:15:12.742Z,20.70
2019-03-29T09:17:42.072Z,20.50
2019-03-29T09:20:11.563Z,20.40
2019-03-29T09:22:40.907Z,20.20
2019-03-29T09:25:10.249Z,20.30
2019-03-29T09:27:39.666Z,20.00
2019-03-29T09:30:09.181Z,19.70
2019-03-29T09:32:38.588Z,19.70
2019-03-29T09:35:08.373Z,20.20
2019-03-29T09:37:37.711Z,20.10
2019-03-29T09:40:07.276Z,19.90
2019-03-29T09:42:36.627Z,19.60
2019-03-29T09:45:07.499Z,19.60
2019-03-29T09:47:40.357Z,19.40
2019-03-29T09:50:10.354Z,19.30
2019-03-29T09:52:39.739Z,18.80
2019-03-29T09:55:09.322Z,18.50
2019-03-29T09:57:38.720Z,18.30
2019-03-29T10:00:20.634Z,18.20
2019-03-29T10:02:40.426Z,18.60
2019-03-29T10:05:09.946Z,18.80
2019-03-29T10:07:39.283Z,18.60
2019-03-29T10:10:09.439Z,18.50
2019-03-29T10:12:43.626Z,18.50
2019-03-29T10:15:10.078Z,18.10
2019-03-29T10:17:39.424Z,17.90
2019-03-29T10:20:09.079Z,17.70
2019-03-29T10:22:38.439Z,17.70
2019-03-29T10:25:19.271Z,17.90
2019-03-29T10:27:39.623Z,17.80
2019-03-29T10:30:09.492Z,17.70
2019-03-29T10:32:38.854Z,17.60
2019-03-29T10:35:08.610Z,17.60
2019-03-29T10:37:37.966Z,17.70
2019-03-29T10:40:08.260Z,17.70
2019-03-29T10:42:40.007Z,17.50
2019-03-29T10:45:09.784Z,17.20
2019-03-29T10:47:43.745Z,17.20
2019-03-29T10:50:10.323Z,17.20
2019-03-29T10:52:39.678Z,17.20
2019-03-29T10:55:09.263Z,17.00
2019-03-29T10:57:38.612Z,16.90
2019-03-29T11:00:12.112Z,16.80
2019-03-29T11:02:41.531Z,16.80
2019-03-29T11:05:11.034Z,16.90
2019-03-29T11:07:40.372Z,17.10
2019-03-29T11:10:12.883Z,17.20
2019-03-29T11:12:42.236Z,17.50
2019-03-29T11:15:11.723Z,17.50
2019-03-29T11:17:41.097Z,17.50
2019-03-29T11:20:10.589Z,17.50
2019-03-29T11:22:40.574Z,17.40
2019-03-29T11:25:09.933Z,17.30
2019-03-29T11:27:40.230Z,17.20
2019-03-29T11:30:09.657Z,17.10
2019-03-29T11:32:38.994Z,17.30
2019-03-29T11:35:08.963Z,17.60
2019-03-29T11:37:38.291Z,17.60
2019-03-29T11:40:07.819Z,17.70
2019-03-29T11:42:37.141Z,17.60
2019-03-29T11:45:07.166Z,17.80
2019-03-29T11:47:36.490Z,17.60
2019-03-29T11:50:06.496Z,17.50
2019-03-29T11:52:35.819Z,17.70
2019-03-29T11:55:06.527Z,17.80
2019-03-29T11:57:35.868Z,18.00
2019-03-29T12:00:07.732Z,18.00
2019-03-29T12:02:37.071Z,17.70
2019-03-29T12:05:06.684Z,17.90
2019-03-29T12:07:36.044Z,18.10
2019-03-29T12:10:06.193Z,18.10
2019-03-29T12:12:35.630Z,17.80
2019-03-29T12:15:07.818Z,17.40
2019-03-29T12:17:37.144Z,17.50
2019-03-29T12:20:07.988Z,17.70
2019-03-29T12:22:37.332Z,17.70
2019-03-29T12:25:08.005Z,17.30
2019-03-29T12:27:37.327Z,17.00
2019-03-29T12:30:08.672Z,16.90
2019-03-29T12:32:39.012Z,17.00
2019-03-29T12:35:10.045Z,17.10
2019-03-29T12:37:39.678Z,17.30
2019-03-29T12:40:09.470Z,17.50
2019-03-29T12:42:38.795Z,17.50
2019-03-29T12:45:08.772Z,17.70
2019-03-29T12:47:38.095Z,17.70
2019-03-29T12:50:08.375Z,17.60
2019-03-29T12:52:37.715Z,17.50
2019-03-29T12:55:08.779Z,17.50
2019-03-29T12:57:39.223Z,17.40
2019-03-29T13:00:09.759Z,17.20
2019-03-29T13:02:39.093Z,17.20
2019-03-29T13:05:08.983Z,17.30
2019-03-29T13:07:38.346Z,17.20
2019-03-29T13:10:09.786Z,17.10
2019-03-29T13:12:39.129Z,17.00
2019-03-29T13:15:09.601Z,17.00
2019-03-29T13:17:38.931Z,17.10
2019-03-29T13:20:08.819Z,17.10
2019-03-29T13:22:38.154Z,17.10
2019-03-29T13:25:07.887Z,17.10
2019-03-29T13:27:37.277Z,17.10
2019-03-29T13:30:08.660Z,17.00
2019-03-29T13:32:37.996Z,17.00
2019-03-29T13:35:07.859Z,16.90
2019-03-29T13:37:38.160Z,16.90
2019-03-29T13:40:08.923Z,17.10
2019-03-29T13:42:38.279Z,17.20
2019-03-29T13:45:08.274Z,17.30
2019-03-29T13:47:37.945Z,17.40
2019-03-29T13:50:10.706Z,17.30
2019-03-29T13:52:40.131Z,17.10
2019-03-29T13:55:09.891Z,17.10
2019-03-29T13:57:39.227Z,17.10
2019-03-29T14:00:10.179Z,17.10
2019-03-29T14:02:39.581Z,17.10
2019-03-29T14:05:08.976Z,17.10
2019-03-29T14:07:38.359Z,17.00
2019-03-29T14:10:09.443Z,17.00
2019-03-29T14:12:39.645Z,16.90
2019-03-29T14:15:10.614Z,16.90
2019-03-29T14:17:39.950Z,17.00
2019-03-29T14:20:09.721Z,17.00
2019-03-29T14:22:39.057Z,17.10
2019-03-29T14:25:08.665Z,17.10
2019-03-29T14:27:38.062Z,17.30
2019-03-29T14:30:08.139Z,17.20
2019-03-29T14:32:38.612Z,17.30
2019-03-29T14:35:08.689Z,17.20
2019-03-29T14:37:38.022Z,16.90
2019-03-29T14:40:08.558Z,16.80
2019-03-29T14:42:37.955Z,16.80
2019-03-29T14:45:08.988Z,16.70
2019-03-29T14:47:42.985Z,16.60
2019-03-29T14:50:10.097Z,16.80
2019-03-29T14:52:40.501Z,16.80
2019-03-29T14:55:09.843Z,16.90
2019-03-29T14:57:39.236Z,17.00
2019-03-29T15:00:11.398Z,16.90
2019-03-29T15:02:40.867Z,16.80
2019-03-29T15:05:10.465Z,16.70
2019-03-29T15:07:41.701Z,16.90
2019-03-29T15:10:14.100Z,16.90
2019-03-29T15:12:43.443Z,16.90
2019-03-29T15:15:12.767Z,17.00
2019-03-29T15:17:42.207Z,16.90
2019-03-29T15:20:14.752Z,16.80
2019-03-29T15:22:42.794Z,16.60
2019-03-29T15:25:12.207Z,16.50
2019-03-29T15:27:41.534Z,16.40
2019-03-29T15:30:12.383Z,16.50
2019-03-29T15:32:41.722Z,16.50
2019-03-29T15:35:11.406Z,16.40
2019-03-29T15:37:40.743Z,16.40
2019-03-29T15:40:10.512Z,16.30
2019-03-29T15:42:39.839Z,16.30
2019-03-29T15:45:19.708Z,16.30
2019-03-29T15:47:40.686Z,16.30
2019-03-29T15:50:10.804Z,16.20
2019-03-29T15:52:40.132Z,16.20
2019-03-29T15:55:11.358Z,16.20
2019-03-29T15:57:40.588Z,16.10
2019-03-29T16:00:11.241Z,16.10
2019-03-29T16:02:40.597Z,16.10
2019-03-29T16:05:10.019Z,16.10
2019-03-29T16:07:39.346Z,16.00
2019-03-29T16:10:08.685Z,16.10
2019-03-29T16:12:38.023Z,16.10
2019-03-29T16:15:07.986Z,16.10
2019-03-29T16:17:37.320Z,16.00
2019-03-29T16:20:06.739Z,15.90
2019-03-29T16:22:36.085Z,15.90
2019-03-29T16:25:07.060Z,15.80
2019-03-29T16:27:36.393Z,15.80
2019-03-29T16:30:06.771Z,15.70
2019-03-29T16:32:37.032Z,15.70
2019-03-29T16:35:07.987Z,15.60
2019-03-29T16:37:37.311Z,15.50
2019-03-29T16:40:07.096Z,15.50
2019-03-29T16:42:36.728Z,15.40
2019-03-29T16:45:07.333Z,15.30
2019-03-29T16:47:36.675Z,15.20
2019-03-29T16:50:06.871Z,15.20
2019-03-29T16:52:36.201Z,15.10
2019-03-29T16:55:13.746Z,15.00
2019-03-29T16:57:38.552Z,14.90
2019-03-29T17:00:12.565Z,14.80
2019-03-29T17:02:42.343Z,14.70
2019-03-29T17:05:11.858Z,14.60
2019-03-29T17:07:41.274Z,14.50
2019-03-29T17:10:10.738Z,14.40
2019-03-29T17:12:40.098Z,14.40
2019-03-29T17:15:09.980Z,14.30
2019-03-29T17:17:40.276Z,14.20
2019-03-29T17:20:10.579Z,14.10
2019-03-29T17:22:43.119Z,14.00
2019-03-29T17:25:10.957Z,13.90
2019-03-29T17:27:40.452Z,13.80
2019-03-29T17:30:11.521Z,13.70
2019-03-29T17:32:40.930Z,13.70
2019-03-29T17:35:10.282Z,13.60
2019-03-29T17:37:39.603Z,13.50
2019-03-29T17:40:09.175Z,13.40
2019-03-29T17:42:39.472Z,13.20
2019-03-29T17:45:09.076Z,13.00
2019-03-29T17:47:38.419Z,13.00
2019-03-29T17:50:08.016Z,12.90
2019-03-29T17:52:37.824Z,12.80
2019-03-29T17:55:08.292Z,12.60
2019-03-29T17:57:37.643Z,12.50
2019-03-29T18:00:08.104Z,12.50
2019-03-29T18:02:37.528Z,12.30
2019-03-29T18:05:08.960Z,12.10
2019-03-29T18:07:38.328Z,12.00
2019-03-29T18:10:08.597Z,12.10
2019-03-29T18:12:37.928Z,12.20
2019-03-29T18:15:07.891Z,11.90
2019-03-29T18:17:37.227Z,11.80
2019-03-29T18:20:08.297Z,11.60
2019-03-29T18:22:37.884Z,11.50
2019-03-29T18:25:08.267Z,11.40
2019-03-29T18:27:37.639Z,11.20
2019-03-29T18:30:12.164Z,11.10
2019-03-29T18:32:42.748Z,10.90
2019-03-29T18:35:12.071Z,10.90
2019-03-29T18:37:41.943Z,10.70
2019-03-29T18:40:25.791Z,10.60
2019-03-29T18:42:55.715Z,10.50
2019-03-29T18:45:25.132Z,10.40
2019-03-29T18:47:54.483Z,10.40
2019-03-29T18:50:23.812Z,10.40
2019-03-29T18:52:53.144Z,10.30
2019-03-29T18:55:22.475Z,10.20
2019-03-29T18:57:51.828Z,10.10
2019-03-29T19:00:29.494Z,10.00
2019-03-29T19:02:58.834Z,10.00
2019-03-29T19:05:28.439Z,9.90
2019-03-29T19:07:57.943Z,9.80
2019-03-29T19:10:27.276Z,9.80
2019-03-29T19:12:56.603Z,9.70
2019-03-29T19:15:25.924Z,9.60
2019-03-29T19:17:55.424Z,9.60
2019-03-29T19:20:27.871Z,9.50
2019-03-29T19:22:55.773Z,9.40
2019-03-29T19:25:25.098Z,9.30
2019-03-29T19:27:54.507Z,9.30
2019-03-29T19:30:24.204Z,9.20
2019-03-29T19:32:53.599Z,9.10
2019-03-29T19:35:23.011Z,9.10
2019-03-29T19:37:52.339Z,9.10
2019-03-29T19:40:21.674Z,9.10
2019-03-29T19:42:51.160Z,9.00
2019-03-29T19:45:20.661Z,8.90
2019-03-29T19:47:50.102Z,8.90
2019-03-29T19:50:19.848Z,8.80
2019-03-29T19:52:49.171Z,8.80
2019-03-29T19:55:18.544Z,8.70
2019-03-29T19:57:47.937Z,8.60
2019-03-29T20:00:17.556Z,8.60
2019-03-29T20:02:46.880Z,8.50
2019-03-29T20:05:27.191Z,8.50
2019-03-29T20:07:57.252Z,8.40
2019-03-29T20:10:26.601Z,8.30
2019-03-29T20:12:57.019Z,8.30
2019-03-29T20:15:26.367Z,8.30
2019-03-29T20:17:56.883Z,8.30
2019-03-29T20:20:26.869Z,8.20
2019-03-29T20:22:56.847Z,8.20
2019-03-29T20:25:26.251Z,8.10
2019-03-29T20:27:58.442Z,8.00
2019-03-29T20:30:27.047Z,8.00
2019-03-29T20:32:56.384Z,8.00
2019-03-29T20:35:25.711Z,7.90
2019-03-29T20:37:55.031Z,7.80
2019-03-29T20:40:24.530Z,7.80
2019-03-29T20:42:53.862Z,7.70
2019-03-29T20:45:23.201Z,7.70
2019-03-29T20:47:52.516Z,7.70
2019-03-29T20:50:21.936Z,7.70
2019-03-29T20:52:51.262Z,7.70
2019-03-29T20:55:20.596Z,7.60
2019-03-29T20:57:50.012Z,7.60
2019-03-29T21:00:19.883Z,7.50
2019-03-29T21:02:49.227Z,7.40
2019-03-29T21:05:18.552Z,7.40
2019-03-29T21:07:47.890Z,7.30
2019-03-29T21:10:18.419Z,7.30
2019-03-29T21:12:47.776Z,7.30
2019-03-29T21:15:17.705Z,7.20
2019-03-29T21:17:56.799Z,7.20
2019-03-29T21:20:18.131Z,7.10
2019-03-29T21:22:47.527Z,7.20
2019-03-29T21:25:16.862Z,7.20
2019-03-29T21:27:46.197Z,7.10
2019-03-29T21:30:15.837Z,7.00
2019-03-29T21:32:45.159Z,7.00
2019-03-29T21:35:14.495Z,6.90
2019-03-29T21:37:43.828Z,6.90
2019-03-29T21:40:13.899Z,6.80
2019-03-29T21:42:43.228Z,6.70
2019-03-29T21:45:27.714Z,6.70
2019-03-29T21:47:45.699Z,6.60
2019-03-29T21:50:15.472Z,6.60
2019-03-29T21:52:44.822Z,6.50
2019-03-29T21:55:14.179Z,6.50
2019-03-29T21:57:43.630Z,6.50
2019-03-29T22:00:13.934Z,6.40
2019-03-29T22:02:43.287Z,6.40
2019-03-29T22:05:12.949Z,6.30
2019-03-29T22:07:42.314Z,6.30
2019-03-29T22:10:12.048Z,6.30
2019-03-29T22:12:43.214Z,6.20
2019-03-29T22:15:12.861Z,6.20
2019-03-29T22:17:42.216Z,6.20
2019-03-29T22:20:11.981Z,6.10
2019-03-29T22:22:41.355Z,6.10
2019-03-29T22:25:10.930Z,6.10
2019-03-29T22:27:40.282Z,6.10
2019-03-29T22:30:10.740Z,6.10
2019-03-29T22:32:40.099Z,6.10
2019-03-29T22:35:09.586Z,6.10
2019-03-29T22:37:39.880Z,6.00
2019-03-29T22:40:09.647Z,5.90
2019-03-29T22:42:38.976Z,5.90
2019-03-29T22:45:08.857Z,5.90
2019-03-29T22:47:38.200Z,5.90
2019-03-29T22:50:09.134Z,5.80
2019-03-29T22:52:38.487Z,5.80
2019-03-29T22:55:08.543Z,5.70
2019-03-29T22:57:37.874Z,5.60
2019-03-29T23:00:15.819Z,5.70
2019-03-29T23:02:46.755Z,5.60
2019-03-29T23:05:16.095Z,5.50
2019-03-29T23:07:45.492Z,5.50
2019-03-29T23:10:14.819Z,5.50
2019-03-29T23:12:44.164Z,5.50
2019-03-29T23:15:13.740Z,5.40
2019-03-29T23:17:43.067Z,5.30
2019-03-29T23:20:12.644Z,5.30
2019-03-29T23:22:41.964Z,5.20
2019-03-29T23:25:11.368Z,5.20
2019-03-29T23:27:40.691Z,5.20
2019-03-29T23:30:10.199Z,5.20
2019-03-29T23:32:39.511Z,5.10
2019-03-29T23:35:09.083Z,5.10
2019-03-29T23:37:38.424Z,5.10
2019-03-29T23:40:07.926Z,5.00
2019-03-29T23:42:37.259Z,5.00
2019-03-29T23:45:07.394Z,4.90
2019-03-29T23:47:36.711Z,4.90
2019-03-29T23:50:06.059Z,4.80
2019-03-29T23:52:35.414Z,4.80
2019-03-29T23:55:05.756Z,4.80
2019-03-29T23:57:35.084Z,4.80
